createdAt,value
2022-10-21T00:04:15.825Z,13
2022-10-21T00:14:15.868Z,13.1
2022-10-21T00:54:15.961Z,13
2022-10-21T01:24:15.992Z,12.8
2022-10-21T01:44:16.046Z,12.8
2022-10-21T01:54:16.058Z,12.7
2022-10-21T02:14:16.143Z,13
2022-10-21T02:24:16.075Z,13
2022-10-21T02:54:16.174Z,12.8
2022-10-21T03:24:28.067Z,12.6
2022-10-21T03:34:16.207Z,12.4
2022-10-21T03:44:16.269Z,12.4
2022-10-21T04:14:16.333Z,12.6
2022-10-21T04:24:16.319Z,12.6
2022-10-21T04:44:16.352Z,12.6
2022-10-21T05:04:16.414Z,12.5
2022-10-21T05:14:20.031Z,12.5
2022-10-21T05:24:16.433Z,12.5
2022-10-21T05:34:16.429Z,12.5
2022-10-21T05:44:16.477Z,12.6
2022-10-21T06:04:16.525Z,12.7
2022-10-21T06:14:16.501Z,12.8
2022-10-21T06:24:16.539Z,12.8
2022-10-21T07:24:22.137Z,12.9
2022-10-21T07:44:16.682Z,13
2022-10-21T08:04:16.752Z,13.1
2022-10-21T08:14:16.763Z,13.1
2022-10-21T08:34:16.776Z,13.2
2022-10-21T08:44:16.761Z,13.3
2022-10-21T09:24:16.895Z,14
2022-10-21T09:34:16.873Z,13.9
2022-10-21T09:44:16.891Z,13.9
2022-10-21T10:14:16.969Z,14.1
2022-10-21T10:24:16.971Z,14.1
2022-10-21T10:34:17.101Z,14.1
2022-10-21T10:44:16.981Z,14.2
2022-10-21T10:54:17.135Z,14.5
2022-10-21T11:04:17.021Z,14.4
2022-10-21T11:14:20.250Z,14.6
2022-10-21T11:24:17.072Z,14.9
2022-10-21T11:34:17.195Z,15.2
2022-10-21T11:44:17.088Z,15.6
2022-10-21T11:54:17.222Z,15.6
2022-10-21T12:04:17.121Z,15.4
2022-10-21T12:14:17.272Z,16.1
2022-10-21T12:24:17.160Z,16.7
2022-10-21T12:34:17.301Z,16.8
2022-10-21T12:44:17.183Z,15.7
2022-10-21T12:54:17.234Z,15.5
2022-10-21T13:04:17.227Z,15.9
2022-10-21T13:14:17.248Z,15.4
2022-10-21T13:24:17.262Z,15.4
2022-10-21T13:34:17.323Z,15.4
2022-10-21T13:44:17.294Z,15.7
2022-10-21T13:54:17.328Z,16.1
2022-10-21T14:04:17.337Z,15.9
2022-10-21T14:24:17.399Z,15.7
2022-10-21T14:34:17.367Z,15.4
2022-10-21T14:44:17.397Z,15.1
2022-10-21T14:54:17.416Z,14.6
2022-10-21T15:04:17.477Z,14.3
2022-10-21T15:14:17.440Z,14.5
2022-10-21T15:24:17.454Z,14.3
2022-10-21T15:34:17.463Z,14.4
2022-10-21T15:44:17.494Z,14.1
2022-10-21T15:54:17.487Z,13.8
2022-10-21T16:04:17.517Z,13.4
2022-10-21T16:24:17.635Z,13.5
2022-10-21T16:34:17.586Z,13.7
2022-10-21T16:44:17.612Z,13.6
2022-10-21T16:54:17.606Z,13.2
2022-10-21T17:04:17.651Z,13
2022-10-21T17:14:17.634Z,13.9
2022-10-21T17:24:17.661Z,13.9
2022-10-21T17:34:17.668Z,13.7
2022-10-21T17:44:17.721Z,13.3
2022-10-21T17:54:17.706Z,13.6
2022-10-21T18:04:17.751Z,13.4
2022-10-21T18:14:17.732Z,13.3
2022-10-21T18:24:17.800Z,13.2
2022-10-21T18:34:17.775Z,12.5
2022-10-21T18:44:17.831Z,12.4
2022-10-21T19:14:17.868Z,12.3
2022-10-21T19:24:17.876Z,12.2
2022-10-21T19:34:17.893Z,13
2022-10-21T19:44:17.894Z,13.2
2022-10-21T19:54:17.941Z,13.4
2022-10-21T20:04:17.939Z,13.2
2022-10-21T20:14:17.985Z,13
2022-10-21T20:24:17.965Z,12.4
2022-10-21T20:34:18.004Z,12.7
2022-10-21T20:44:18.011Z,12.2
2022-10-21T20:54:18.051Z,12.2
2022-10-21T21:04:18.023Z,12.2
2022-10-21T21:14:18.097Z,12.3
2022-10-21T21:24:18.066Z,12.7
2022-10-21T21:34:18.114Z,12.6
2022-10-21T21:44:18.115Z,12.4
2022-10-21T21:54:18.154Z,12.2
2022-10-21T22:04:18.165Z,12.4
2022-10-21T22:14:18.221Z,12.4
2022-10-21T22:24:18.187Z,12.2
2022-10-21T22:34:18.222Z,12.6
2022-10-21T22:44:18.248Z,13
2022-10-21T22:54:36.033Z,12.6
2022-10-21T23:04:18.289Z,12.6
2022-10-21T23:14:18.320Z,12.4
2022-10-21T23:24:18.305Z,12.4
2022-10-21T23:34:18.337Z,12.6
2022-10-21T23:44:18.335Z,12.7
2022-10-21T23:54:18.402Z,12.9
